TimePDT,TemperatureF,Dew PointF,Humidity,Sea Level PressureIn,VisibilityMPH,Wind Direction,Wind SpeedMPH,Gust SpeedMPH,PrecipitationIn,Events,Conditions,WindDirDegrees,DateUTC
12:15 AM,46.4,39.2,76,30.02,10.0,Calm,Calm,-,N/A,,Clear,0,2013-09-18 07:15:00
12:35 AM,46.4,39.2,76,30.02,10.0,Calm,Calm,-,N/A,,Partly Cloudy,0,2013-09-18 07:35:00
12:55 AM,44.6,39.2,81,30.03,10.0,Calm,Calm,-,N/A,,Clear,0,2013-09-18 07:55:00
1:15 AM,44.6,39.2,81,30.03,10.0,Calm,Calm,-,N/A,,Partly Cloudy,0,2013-09-18 08:15:00
1:35 AM,44.6,39.2,81,30.03,10.0,Calm,Calm,-,N/A,,Clear,0,2013-09-18 08:35:00
1:55 AM,42.8,39.2,87,30.03,10.0,Calm,Calm,-,N/A,,Clear,0,2013-09-18 08:55:00
2:15 AM,42.8,39.2,87,30.03,10.0,Calm,Calm,-,N/A,,Partly Cloudy,0,2013-09-18 09:15:00
2:35 AM,42.8,37.4,81,30.03,10.0,Calm,Calm,-,N/A,,Partly Cloudy,0,2013-09-18 09:35:00
2:55 AM,42.8,37.4,81,30.03,10.0,Calm,Calm,-,N/A,,Scattered Clouds,0,2013-09-18 09:55:00
3:15 AM,41.0,37.4,87,30.03,10.0,Calm,Calm,-,N/A,,Clear,0,2013-09-18 10:15:00
3:35 AM,41.0,37.4,87,30.04,10.0,Calm,Calm,-,N/A,,Clear,0,2013-09-18 10:35:00
3:55 AM,41.0,37.4,87,30.04,10.0,Calm,Calm,-,N/A,,Clear,0,2013-09-18 10:55:00
4:15 AM,41.0,37.4,87,30.04,10.0,Calm,Calm,-,N/A,,Clear,0,2013-09-18 11:15:00
4:35 AM,41.0,37.4,87,30.05,10.0,Calm,Calm,-,N/A,,Clear,0,2013-09-18 11:35:00
4:55 AM,39.2,37.4,93,30.05,10.0,Calm,Calm,-,N/A,,Clear,0,2013-09-18 11:55:00
5:15 AM,39.2,37.4,93,30.05,10.0,Calm,Calm,-,N/A,,Clear,0,2013-09-18 12:15:00
5:35 AM,39.2,37.4,93,30.06,10.0,Calm,Calm,-,N/A,,Partly Cloudy,0,2013-09-18 12:35:00
5:55 AM,39.2,37.4,93,30.06,10.0,Calm,Calm,-,N/A,,Clear,0,2013-09-18 12:55:00
6:15 AM,39.2,35.6,87,30.06,10.0,Calm,Calm,-,N/A,,Clear,0,2013-09-18 13:15:00
6:35 AM,37.4,35.6,93,30.06,10.0,Calm,Calm,-,N/A,,Clear,0,2013-09-18 13:35:00
6:55 AM,37.4,35.6,93,30.07,10.0,Calm,Calm,-,N/A,,Clear,0,2013-09-18 13:55:00
7:15 AM,37.4,35.6,93,30.08,10.0,Calm,Calm,-,N/A,,Clear,0,2013-09-18 14:15:00
7:35 AM,37.4,35.6,93,30.09,10.0,Calm,Calm,-,N/A,,Clear,0,2013-09-18 14:35:00
7:55 AM,39.2,37.4,93,30.09,10.0,Calm,Calm,-,N/A,,Clear,0,2013-09-18 14:55:00
8:15 AM,41.0,37.4,87,30.08,10.0,Calm,Calm,-,N/A,,Clear,0,2013-09-18 15:15:00
8:35 AM,44.6,39.2,81,30.08,10.0,Calm,Calm,-,N/A,,Clear,0,2013-09-18 15:35:00
8:55 AM,46.4,41.0,81,30.08,10.0,Calm,Calm,-,N/A,,Clear,0,2013-09-18 15:55:00
9:15 AM,50.0,41.0,71,30.07,10.0,SSW,3.5,-,N/A,,Clear,200,2013-09-18 16:15:00
9:35 AM,50.0,42.8,76,30.07,10.0,Calm,Calm,-,N/A,,Clear,0,2013-09-18 16:35:00
9:55 AM,53.6,41.0,62,30.06,10.0,Calm,Calm,-,N/A,,Clear,0,2013-09-18 16:55:00
10:15 AM,55.4,41.0,58,30.05,10.0,SW,4.6,-,N/A,,Clear,220,2013-09-18 17:15:00
10:35 AM,59.0,41.0,51,30.04,10.0,SW,4.6,-,N/A,,Clear,220,2013-09-18 17:35:00
10:55 AM,62.6,41.0,45,30.04,10.0,SSW,4.6,-,N/A,,Clear,200,2013-09-18 17:55:00
11:15 AM,64.4,35.6,34,30.03,10.0,SSE,4.6,-,N/A,,Clear,150,2013-09-18 18:15:00
11:35 AM,66.2,33.8,30,30.02,10.0,East,4.6,-,N/A,,Clear,90,2013-09-18 18:35:00
11:55 AM,68.0,35.6,30,30.01,10.0,NE,4.6,-,N/A,,Clear,50,2013-09-18 18:55:00
12:15 PM,68.0,33.8,28,30.00,10.0,North,4.6,-,N/A,,Clear,350,2013-09-18 19:15:00
12:35 PM,68.0,33.8,28,30.00,10.0,West,5.8,-,N/A,,Clear,270,2013-09-18 19:35:00
12:55 PM,71.6,35.6,27,30.00,10.0,SSW,6.9,-,N/A,,Clear,210,2013-09-18 19:55:00
1:15 PM,71.6,33.8,25,29.99,10.0,Calm,Calm,-,N/A,,Clear,0,2013-09-18 20:15:00
1:35 PM,73.4,33.8,23,29.98,10.0,South,4.6,-,N/A,,Clear,190,2013-09-18 20:35:00
1:55 PM,73.4,32.0,22,29.97,10.0,South,4.6,-,N/A,,Clear,190,2013-09-18 20:55:00
2:15 PM,75.2,32.0,21,29.97,10.0,SSW,5.8,-,N/A,,Clear,210,2013-09-18 21:15:00
2:35 PM,75.2,32.0,21,29.96,10.0,South,6.9,-,N/A,,Clear,170,2013-09-18 21:35:00
2:55 PM,75.2,30.2,19,29.95,10.0,South,3.5,-,N/A,,Clear,180,2013-09-18 21:55:00
3:15 PM,77.0,30.2,18,29.95,10.0,NW,4.6,-,N/A,,Clear,310,2013-09-18 22:15:00
3:35 PM,77.0,30.2,18,29.94,10.0,SW,6.9,-,N/A,,Clear,230,2013-09-18 22:35:00
3:55 PM,77.0,32.0,19,29.93,10.0,WNW,5.8,-,N/A,,Clear,300,2013-09-18 22:55:00
4:15 PM,77.0,32.0,19,29.93,10.0,WSW,6.9,-,N/A,,Clear,250,2013-09-18 23:15:00
4:35 PM,77.0,32.0,19,29.92,10.0,North,3.5,-,N/A,,Clear,360,2013-09-18 23:35:00
4:55 PM,78.8,32.0,18,29.92,10.0,South,5.8,-,N/A,,Clear,190,2013-09-18 23:55:00
5:15 PM,77.0,30.2,18,29.92,10.0,SSW,3.5,-,N/A,,Clear,210,2013-09-19 00:15:00
5:35 PM,77.0,30.2,18,29.92,10.0,Calm,Calm,-,N/A,,Clear,0,2013-09-19 00:35:00
5:55 PM,77.0,32.0,19,29.92,10.0,Calm,Calm,-,N/A,,Clear,0,2013-09-19 00:55:00
6:15 PM,77.0,32.0,19,29.92,10.0,SSW,3.5,-,N/A,,Clear,210,2013-09-19 01:15:00
6:35 PM,75.2,32.0,21,29.92,10.0,North,4.6,-,N/A,,Clear,360,2013-09-19 01:35:00
6:55 PM,69.8,35.6,28,29.92,10.0,NE,3.5,-,N/A,,Clear,40,2013-09-19 01:55:00
7:15 PM,68.0,33.8,28,29.93,10.0,North,3.5,-,N/A,,Clear,10,2013-09-19 02:15:00
7:35 PM,64.4,35.6,34,29.93,10.0,Calm,Calm,-,N/A,,Partly Cloudy,0,2013-09-19 02:35:00
7:55 PM,62.6,35.6,37,29.94,10.0,NNE,4.6,-,N/A,,Scattered Clouds,20,2013-09-19 02:55:00
8:15 PM,59.0,35.6,42,29.94,10.0,NE,4.6,-,N/A,,Scattered Clouds,40,2013-09-19 03:15:00
8:35 PM,59.0,35.6,42,29.95,10.0,Calm,Calm,-,N/A,,Mostly Cloudy,0,2013-09-19 03:35:00
8:55 PM,55.4,37.4,51,29.96,10.0,NNE,3.5,-,N/A,,Mostly Cloudy,20,2013-09-19 03:55:00
9:15 PM,55.4,35.6,47,29.97,10.0,Calm,Calm,-,N/A,,Mostly Cloudy,0,2013-09-19 04:15:00
9:35 PM,53.6,35.6,51,29.97,10.0,Calm,Calm,-,N/A,,Mostly Cloudy,0,2013-09-19 04:35:00
9:55 PM,55.4,35.6,47,29.97,10.0,NNE,3.5,-,N/A,,Mostly Cloudy,20,2013-09-19 04:55:00
10:15 PM,53.6,35.6,51,29.97,10.0,NNE,4.6,-,N/A,,Mostly Cloudy,20,2013-09-19 05:15:00
10:35 PM,51.8,35.6,54,29.97,10.0,NE,3.5,-,N/A,,Overcast,40,2013-09-19 05:35:00
10:55 PM,51.8,35.6,54,29.97,10.0,NNE,3.5,-,N/A,,Overcast,30,2013-09-19 05:55:00
11:15 PM,50.0,35.6,58,29.98,10.0,Calm,Calm,-,N/A,,Overcast,0,2013-09-19 06:15:00
11:35 PM,50.0,37.4,62,29.98,10.0,Calm,Calm,-,N/A,,Overcast,0,2013-09-19 06:35:00
11:55 PM,50.0,37.4,62,29.98,10.0,Calm,Calm,-,N/A,,Overcast,0,2013-09-19 06:55:00